Airfield :
LOGIN :

Register | Disclaimer

   EN    FR    IT 

 










Legend :    VFR   Marginal VFR   IFR   Intensive IFR   Very Intensive IFR
Visi :
Ceiling :
>= 8 km
>= 3000ft
5 to 8 km
1000 to 3000 ft
1500m to 5 km
500 to 1000 ft
800 to 1500m
200 to 500 ft
< 800m
< 200 ft
Symbols :   Thunderstorms  Fog  Heavy snow  Heavy precipitations  Wind > 20 kt
SIGMETs :     Misc.  Thunderstorms  Icing  Turbulence  Mountain Waves  Volcanic Ashes







- Airport Elevation : 13 ft
- IATA code : GOA


LIMJ - Genoa Cristoforo Colombo

CURRENT METAR :
  • 211720Z 21003KT 9999 SCT030 19/13 Q1019

EXPIRED METARs :
  • 211650Z 21003KT 180V240 9999 FEW025 19/12 Q1019
  • 211620Z 19003KT 140V230 9999 FEW030 20/12 Q1019
  • 211550Z 18003KT 140V210 9999 FEW030 20/13 Q1019
  • 211520Z 18003KT 130V250 9999 FEW030 20/12 Q1019
  • 211450Z 18003KT 150V240 9999 FEW030 20/12 Q1019
  • 211420Z 17003KT 130V210 9999 FEW030 20/13 Q1019

TAF TAF LIMJ
Valid from the 21 at 12:00 until the 22 at 12:00 UTC


211100Z 2112/2212 VRB05KT 9999 SCT030
No reported NOTAMs for that airfield.



MET'MAP, your aeronautical weather chart ! - Copyright ORBIFLY December 2007 - Disclaimer

ORBIFLY MET'MAP TEAM :

Programming & Development : Alexandra Zaïnal
Concept & Development : Baudouin d'Aumeries
Co-Development & Prog : Marc-Olivier Méhu
Technical & hardware support : Manuel Goepfert

Contact : metmap@orbifly.com




SOURCES & CREDITS :

   NOAA